sensor_id;sensor_type;location;lat;lon;timestamp;pressure;altitude;pressure_sealevel;temperature;humidity
77288;BME280;66345;42.694;23.346;2024-03-02T00:01:11;94976.56;;;8.30;80.39
77288;BME280;66345;42.694;23.346;2024-03-02T00:03:38;94976.22;;;8.33;79.89
77288;BME280;66345;42.694;23.346;2024-03-02T00:06:04;94987.00;;;8.17;79.89
77288;BME280;66345;42.694;23.346;2024-03-02T00:08:30;95000.88;;;8.04;80.44
77288;BME280;66345;42.694;23.346;2024-03-02T00:10:59;94973.91;;;8.09;80.43
77288;BME280;66345;42.694;23.346;2024-03-02T00:13:25;94982.78;;;8.23;79.98
77288;BME280;66345;42.694;23.346;2024-03-02T00:15:55;94981.53;;;8.19;80.02
77288;BME280;66345;42.694;23.346;2024-03-02T00:18:27;94984.19;;;8.19;79.89
77288;BME280;66345;42.694;23.346;2024-03-02T00:20:57;94978.72;;;8.05;80.33
77288;BME280;66345;42.694;23.346;2024-03-02T00:23:23;94980.34;;;8.21;80.61
77288;BME280;66345;42.694;23.346;2024-03-02T00:25:55;94980.34;;;8.21;80.31
77288;BME280;66345;42.694;23.346;2024-03-02T00:28:35;94970.06;;;8.12;80.52
77288;BME280;66345;42.694;23.346;2024-03-02T00:31:04;94979.72;;;8.19;80.13
77288;BME280;66345;42.694;23.346;2024-03-02T00:36:06;94968.69;;;8.16;80.26
77288;BME280;66345;42.694;23.346;2024-03-02T00:38:33;94978.16;;;8.25;80.32
77288;BME280;66345;42.694;23.346;2024-03-02T00:41:01;94970.22;;;8.25;79.99
77288;BME280;66345;42.694;23.346;2024-03-02T00:46:00;94975.09;;;8.06;80.56
77288;BME280;66345;42.694;23.346;2024-03-02T00:48:26;94963.16;;;8.11;80.30
77288;BME280;66345;42.694;23.346;2024-03-02T00:50:55;94974.75;;;8.31;79.58
77288;BME280;66345;42.694;23.346;2024-03-02T00:53:23;94954.38;;;8.25;79.99
77288;BME280;66345;42.694;23.346;2024-03-02T00:55:50;94967.97;;;8.07;79.80
77288;BME280;66345;42.694;23.346;2024-03-02T00:58:16;94959.22;;;8.06;80.49
77288;BME280;66345;42.694;23.346;2024-03-02T01:00:41;94948.66;;;8.06;79.67
77288;BME280;66345;42.694;23.346;2024-03-02T01:03:06;94963.16;;;8.11;80.37
77288;BME280;66345;42.694;23.346;2024-03-02T01:05:33;94962.34;;;8.10;79.69
77288;BME280;66345;42.694;23.346;2024-03-02T01:07:59;94951.19;;;8.15;79.45
77288;BME280;66345;42.694;23.346;2024-03-02T01:10:24;94964.66;;;8.20;79.89
77288;BME280;66345;42.694;23.346;2024-03-02T01:12:51;94965.56;;;8.27;78.81
77288;BME280;66345;42.694;23.346;2024-03-02T01:15:17;94961.63;;;8.23;78.90
77288;BME280;66345;42.694;23.346;2024-03-02T01:17:42;94949.44;;;8.22;79.36
77288;BME280;66345;42.694;23.346;2024-03-02T01:20:08;94945.66;;;8.31;79.18
77288;BME280;66345;42.694;23.346;2024-03-02T01:22:35;94945.44;;;8.26;79.58
77288;BME280;66345;42.694;23.346;2024-03-02T01:25:01;94943.00;;;8.31;79.17
77288;BME280;66345;42.694;23.346;2024-03-02T01:27:27;94934.00;;;8.40;79.27
77288;BME280;66345;42.694;23.346;2024-03-02T01:29:53;94924.13;;;8.49;78.50
77288;BME280;66345;42.694;23.346;2024-03-02T01:32:20;94929.09;;;8.58;78.59
77288;BME280;66345;42.694;23.346;2024-03-02T01:34:45;94938.34;;;8.69;78.98
77288;BME280;66345;42.694;23.346;2024-03-02T01:37:11;94922.97;;;8.58;80.00
77288;BME280;66345;42.694;23.346;2024-03-02T01:39:37;94934.13;;;8.53;80.27
77288;BME280;66345;42.694;23.346;2024-03-02T01:42:02;94931.38;;;8.40;80.17
77288;BME280;66345;42.694;23.346;2024-03-02T01:44:28;94927.72;;;8.41;80.57
77288;BME280;66345;42.694;23.346;2024-03-02T01:46:53;94924.63;;;8.38;80.44
77288;BME280;66345;42.694;23.346;2024-03-02T01:49:19;94931.72;;;8.37;80.91
77288;BME280;66345;42.694;23.346;2024-03-02T01:51:44;94931.47;;;8.32;81.13
77288;BME280;66345;42.694;23.346;2024-03-02T01:54:10;94921.41;;;8.42;80.80
77288;BME280;66345;42.694;23.346;2024-03-02T01:56:36;94927.00;;;8.32;81.66
77288;BME280;66345;42.694;23.346;2024-03-02T01:59:01;94919.34;;;8.23;81.84
77288;BME280;66345;42.694;23.346;2024-03-02T02:01:27;94929.31;;;8.21;81.75
77288;BME280;66345;42.694;23.346;2024-03-02T02:03:52;94933.78;;;8.20;81.94
77288;BME280;66345;42.694;23.346;2024-03-02T02:06:18;94918.22;;;8.11;81.82
77288;BME280;66345;42.694;23.346;2024-03-02T02:08:44;94922.25;;;8.06;82.52
77288;BME280;66345;42.694;23.346;2024-03-02T02:11:10;94914.84;;;8.17;81.90
77288;BME280;66345;42.694;23.346;2024-03-02T02:13:36;94920.47;;;8.14;81.53
77288;BME280;66345;42.694;23.346;2024-03-02T02:16:08;94926.34;;;8.09;82.37
77288;BME280;66345;42.694;23.346;2024-03-02T02:18:34;94921.53;;;7.98;81.98
77288;BME280;66345;42.694;23.346;2024-03-02T02:21:01;94926.22;;;8.17;81.88
77288;BME280;66345;42.694;23.346;2024-03-02T02:23:27;94916.84;;;8.15;81.81
77288;BME280;66345;42.694;23.346;2024-03-02T02:25:53;94904.97;;;8.25;80.88
77288;BME280;66345;42.694;23.346;2024-03-02T02:28:18;94910.94;;;8.13;81.64
77288;BME280;66345;42.694;23.346;2024-03-02T02:30:44;94906.94;;;8.23;80.62
77288;BME280;66345;42.694;23.346;2024-03-02T02:33:09;94911.25;;;8.24;80.84
77288;BME280;66345;42.694;23.346;2024-03-02T02:35:35;94906.47;;;8.13;81.87
77288;BME280;66345;42.694;23.346;2024-03-02T02:38:00;94915.47;;;8.19;82.01
77288;BME280;66345;42.694;23.346;2024-03-02T02:40:27;94916.91;;;8.21;81.37
77288;BME280;66345;42.694;23.346;2024-03-02T02:42:56;94919.31;;;8.16;82.06
77288;BME280;66345;42.694;23.346;2024-03-02T02:45:22;94911.47;;;8.08;81.82
77288;BME280;66345;42.694;23.346;2024-03-02T02:47:47;94904.56;;;8.07;81.95
77288;BME280;66345;42.694;23.346;2024-03-02T02:50:13;94903.38;;;8.10;82.31
77288;BME280;66345;42.694;23.346;2024-03-02T02:52:40;94919.53;;;8.00;83.13
77288;BME280;66345;42.694;23.346;2024-03-02T02:55:10;94917.81;;;7.92;83.83
77288;BME280;66345;42.694;23.346;2024-03-02T02:57:37;94921.84;;;7.88;83.58
77288;BME280;66345;42.694;23.346;2024-03-02T03:00:08;94931.56;;;8.02;84.13
77288;BME280;66345;42.694;23.346;2024-03-02T03:02:48;94921.16;;;8.01;83.67
77288;BME280;66345;42.694;23.346;2024-03-02T03:05:15;94918.09;;;7.97;84.04
77288;BME280;66345;42.694;23.346;2024-03-02T03:07:41;94927.00;;;7.96;83.48
77288;BME280;66345;42.694;23.346;2024-03-02T03:10:07;94929.16;;;8.07;83.33
77288;BME280;66345;42.694;23.346;2024-03-02T03:12:36;94916.59;;;8.10;83.36
77288;BME280;66345;42.694;23.346;2024-03-02T03:15:03;94924.88;;;8.06;83.92
77288;BME280;66345;42.694;23.346;2024-03-02T03:17:29;94915.19;;;8.14;83.45
77288;BME280;66345;42.694;23.346;2024-03-02T03:19:55;94893.09;;;8.00;83.40
77288;BME280;66345;42.694;23.346;2024-03-02T03:22:20;94929.03;;;8.16;83.34
77288;BME280;66345;42.694;23.346;2024-03-02T03:24:46;94920.16;;;8.23;83.25
77288;BME280;66345;42.694;23.346;2024-03-02T03:27:12;94934.09;;;8.32;83.17
77288;BME280;66345;42.694;23.346;2024-03-02T03:29:38;94915.53;;;8.25;83.00
77288;BME280;66345;42.694;23.346;2024-03-02T03:32:03;94923.53;;;8.32;83.65
77288;BME280;66345;42.694;23.346;2024-03-02T03:34:32;94924.34;;;8.32;83.25
77288;BME280;66345;42.694;23.346;2024-03-02T03:36:58;94927.44;;;8.36;83.18
77288;BME280;66345;42.694;23.346;2024-03-02T03:39:24;94918.41;;;8.30;83.01
77288;BME280;66345;42.694;23.346;2024-03-02T03:41:49;94926.47;;;8.22;83.37
77288;BME280;66345;42.694;23.346;2024-03-02T03:44:15;94922.38;;;8.20;83.31
77288;BME280;66345;42.694;23.346;2024-03-02T03:46:41;94914.66;;;8.18;83.45
77288;BME280;66345;42.694;23.346;2024-03-02T03:49:06;94930.25;;;8.13;83.59
77288;BME280;66345;42.694;23.346;2024-03-02T03:51:33;94912.59;;;7.99;84.65
77288;BME280;66345;42.694;23.346;2024-03-02T03:53:59;94921.50;;;8.13;84.31
77288;BME280;66345;42.694;23.346;2024-03-02T03:56:24;94908.47;;;8.11;83.96
77288;BME280;66345;42.694;23.346;2024-03-02T03:58:50;94924.22;;;8.19;84.49
77288;BME280;66345;42.694;23.346;2024-03-02T04:01:15;94911.75;;;8.13;84.93
77288;BME280;66345;42.694;23.346;2024-03-02T04:03:41;94916.72;;;8.23;84.29
77288;BME280;66345;42.694;23.346;2024-03-02T04:06:06;94917.09;;;8.20;84.67
77288;BME280;66345;42.694;23.346;2024-03-02T04:08:32;94905.31;;;8.22;84.26
77288;BME280;66345;42.694;23.346;2024-03-02T04:10:57;94912.88;;;8.25;84.39
77288;BME280;66345;42.694;23.346;2024-03-02T04:13:23;94918.47;;;8.16;84.06
77288;BME280;66345;42.694;23.346;2024-03-02T04:15:48;94925.28;;;8.25;83.93
77288;BME280;66345;42.694;23.346;2024-03-02T04:18:14;94919.81;;;8.26;83.70
77288;BME280;66345;42.694;23.346;2024-03-02T04:20:39;94899.53;;;8.12;84.05
77288;BME280;66345;42.694;23.346;2024-03-02T04:23:05;94916.09;;;8.21;83.26
77288;BME280;66345;42.694;23.346;2024-03-02T04:25:30;94912.69;;;8.27;83.86
77288;BME280;66345;42.694;23.346;2024-03-02T04:27:56;94930.72;;;8.38;83.19
77288;BME280;66345;42.694;23.346;2024-03-02T04:30:21;94924.41;;;8.18;83.62
77288;BME280;66345;42.694;23.346;2024-03-02T04:32:47;94924.75;;;8.15;83.57
77288;BME280;66345;42.694;23.346;2024-03-02T04:35:14;94925.81;;;7.99;84.38
77288;BME280;66345;42.694;23.346;2024-03-02T04:37:39;94916.69;;;7.80;84.78
77288;BME280;66345;42.694;23.346;2024-03-02T04:40:05;94939.41;;;7.96;83.88
77288;BME280;66345;42.694;23.346;2024-03-02T04:42:35;94932.00;;;8.06;84.01
77288;BME280;66345;42.694;23.346;2024-03-02T04:45:01;94929.22;;;8.14;85.68
77288;BME280;66345;42.694;23.346;2024-03-02T04:47:26;94923.00;;;8.22;85.00
77288;BME280;66345;42.694;23.346;2024-03-02T04:49:52;94928.00;;;8.31;85.11
77288;BME280;66345;42.694;23.346;2024-03-02T04:52:17;94938.25;;;8.20;86.04
77288;BME280;66345;42.694;23.346;2024-03-02T04:54:43;94941.66;;;7.99;84.63
77288;BME280;66345;42.694;23.346;2024-03-02T04:57:27;94939.25;;;7.83;86.85
77288;BME280;66345;42.694;23.346;2024-03-02T04:59:53;94941.16;;;7.89;86.41
77288;BME280;66345;42.694;23.346;2024-03-02T05:02:18;94949.69;;;7.91;87.29
77288;BME280;66345;42.694;23.346;2024-03-02T05:04:44;94944.81;;;7.88;87.30
77288;BME280;66345;42.694;23.346;2024-03-02T05:07:09;94945.72;;;7.80;87.73
77288;BME280;66345;42.694;23.346;2024-03-02T05:09:35;94945.19;;;7.70;88.11
77288;BME280;66345;42.694;23.346;2024-03-02T05:12:01;94946.56;;;7.66;89.45
77288;BME280;66345;42.694;23.346;2024-03-02T05:14:45;94953.03;;;7.63;89.09
77288;BME280;66345;42.694;23.346;2024-03-02T05:17:11;94951.84;;;7.66;89.43
77288;BME280;66345;42.694;23.346;2024-03-02T05:19:36;94955.19;;;7.74;89.69
77288;BME280;66345;42.694;23.346;2024-03-02T05:22:03;94948.66;;;7.56;88.90
77288;BME280;66345;42.694;23.346;2024-03-02T05:24:29;94962.84;;;7.69;89.73
77288;BME280;66345;42.694;23.346;2024-03-02T05:26:54;94951.84;;;7.66;89.56
77288;BME280;66345;42.694;23.346;2024-03-02T05:29:20;94968.31;;;7.68;89.86
77288;BME280;66345;42.694;23.346;2024-03-02T05:31:46;94965.47;;;7.69;90.17
77288;BME280;66345;42.694;23.346;2024-03-02T05:34:11;94966.84;;;7.80;89.99
77288;BME280;66345;42.694;23.346;2024-03-02T05:36:37;94965.94;;;7.88;89.72
77288;BME280;66345;42.694;23.346;2024-03-02T05:39:05;94975.59;;;7.81;89.85
77288;BME280;66345;42.694;23.346;2024-03-02T05:41:31;94983.84;;;7.92;90.07
77288;BME280;66345;42.694;23.346;2024-03-02T05:43:57;94986.66;;;8.05;90.33
77288;BME280;66345;42.694;23.346;2024-03-02T05:46:22;94970.91;;;7.97;90.82
77288;BME280;66345;42.694;23.346;2024-03-02T05:48:48;94991.16;;;7.90;91.21
77288;BME280;66345;42.694;23.346;2024-03-02T05:51:13;94973.75;;;7.96;91.57
77288;BME280;66345;42.694;23.346;2024-03-02T05:53:39;94975.75;;;7.94;91.02
77288;BME280;66345;42.694;23.346;2024-03-02T05:56:05;94986.84;;;8.04;91.41
77288;BME280;66345;42.694;23.346;2024-03-02T05:58:31;94990.59;;;8.10;90.72
77288;BME280;66345;42.694;23.346;2024-03-02T06:01:08;94993.78;;;8.05;90.92
77288;BME280;66345;42.694;23.346;2024-03-02T06:03:33;94992.56;;;8.07;91.13
77288;BME280;66345;42.694;23.346;2024-03-02T06:05:59;94986.94;;;8.11;90.45
77288;BME280;66345;42.694;23.346;2024-03-02T06:08:25;94984.91;;;8.13;90.41
77288;BME280;66345;42.694;23.346;2024-03-02T06:10:50;94986.22;;;8.02;90.59
77288;BME280;66345;42.694;23.346;2024-03-02T06:13:16;94992.78;;;7.91;90.11
77288;BME280;66345;42.694;23.346;2024-03-02T06:15:41;95004.53;;;7.89;90.26
77288;BME280;66345;42.694;23.346;2024-03-02T06:18:07;94996.09;;;7.64;90.27
77288;BME280;66345;42.694;23.346;2024-03-02T06:20:33;94989.34;;;7.76;91.33
77288;BME280;66345;42.694;23.346;2024-03-02T06:22:59;94995.91;;;7.80;91.83
77288;BME280;66345;42.694;23.346;2024-03-02T06:25:24;94992.88;;;7.83;90.48
77288;BME280;66345;42.694;23.346;2024-03-02T06:27:50;95006.28;;;7.96;91.00
77288;BME280;66345;42.694;23.346;2024-03-02T06:30:15;95001.25;;;8.01;90.19
77288;BME280;66345;42.694;23.346;2024-03-02T06:32:41;94999.06;;;7.90;90.23
77288;BME280;66345;42.694;23.346;2024-03-02T06:35:07;94995.00;;;7.88;90.11
77288;BME280;66345;42.694;23.346;2024-03-02T06:37:36;95001.34;;;7.93;90.37
77288;BME280;66345;42.694;23.346;2024-03-02T06:40:02;95006.28;;;7.96;91.04
77288;BME280;66345;42.694;23.346;2024-03-02T06:42:27;95002.09;;;8.02;90.40
77288;BME280;66345;42.694;23.346;2024-03-02T06:44:58;95017.22;;;7.78;91.07
77288;BME280;66345;42.694;23.346;2024-03-02T06:47:24;95017.47;;;7.69;91.63
77288;BME280;66345;42.694;23.346;2024-03-02T06:49:49;95009.00;;;7.88;91.72
77288;BME280;66345;42.694;23.346;2024-03-02T06:52:15;95002.81;;;7.81;91.90
77288;BME280;66345;42.694;23.346;2024-03-02T06:54:40;95007.00;;;7.90;90.84
77288;BME280;66345;42.694;23.346;2024-03-02T06:57:06;95014.31;;;7.73;90.74
77288;BME280;66345;42.694;23.346;2024-03-02T06:59:34;95016.31;;;7.86;90.44
77288;BME280;66345;42.694;23.346;2024-03-02T07:02:00;95008.38;;;7.86;90.05
77288;BME280;66345;42.694;23.346;2024-03-02T07:04:26;95021.75;;;7.70;91.07
77288;BME280;66345;42.694;23.346;2024-03-02T07:06:51;95019.19;;;7.91;90.96
77288;BME280;66345;42.694;23.346;2024-03-02T07:09:17;95015.13;;;7.89;90.32
77288;BME280;66345;42.694;23.346;2024-03-02T07:11:42;95034.41;;;8.04;90.42
77288;BME280;66345;42.694;23.346;2024-03-02T07:14:08;95011.56;;;7.82;89.96
77288;BME280;66345;42.694;23.346;2024-03-02T07:16:34;95012.91;;;7.77;90.80
77288;BME280;66345;42.694;23.346;2024-03-02T07:19:00;95029.41;;;8.09;91.18
77288;BME280;66345;42.694;23.346;2024-03-02T07:21:27;95023.19;;;8.17;89.66
77288;BME280;66345;42.694;23.346;2024-03-02T07:23:53;95015.44;;;8.15;88.95
77288;BME280;66345;42.694;23.346;2024-03-02T07:26:18;95025.84;;;8.17;88.80
77288;BME280;66345;42.694;23.346;2024-03-02T07:28:48;95015.72;;;8.05;88.42
77288;BME280;66345;42.694;23.346;2024-03-02T07:31:14;95031.13;;;8.02;89.38
77288;BME280;66345;42.694;23.346;2024-03-02T07:33:40;95017.47;;;7.98;89.05
77288;BME280;66345;42.694;23.346;2024-03-02T07:36:09;95026.41;;;7.97;90.00
77288;BME280;66345;42.694;23.346;2024-03-02T07:38:35;95031.25;;;7.94;90.19
77288;BME280;66345;42.694;23.346;2024-03-02T07:41:00;95038.06;;;8.03;89.75
77288;BME280;66345;42.694;23.346;2024-03-02T07:43:26;95034.84;;;8.07;89.27
77288;BME280;66345;42.694;23.346;2024-03-02T07:45:52;95042.63;;;8.09;89.34
77288;BME280;66345;42.694;23.346;2024-03-02T07:48:18;95048.72;;;8.10;89.36
77288;BME280;66345;42.694;23.346;2024-03-02T07:50:43;95016.84;;;7.96;89.44
77288;BME280;66345;42.694;23.346;2024-03-02T07:53:10;95036.31;;;8.10;89.98
77288;BME280;66345;42.694;23.346;2024-03-02T07:55:35;95022.91;;;8.12;89.90
77288;BME280;66345;42.694;23.346;2024-03-02T07:58:01;95041.94;;;8.22;89.10
77288;BME280;66345;42.694;23.346;2024-03-02T08:00:27;95053.44;;;8.14;89.48
77288;BME280;66345;42.694;23.346;2024-03-02T08:02:54;95051.59;;;8.15;89.64
77288;BME280;66345;42.694;23.346;2024-03-02T08:05:20;95050.69;;;8.22;89.99
77288;BME280;66345;42.694;23.346;2024-03-02T08:07:46;95040.94;;;8.38;89.18
77288;BME280;66345;42.694;23.346;2024-03-02T08:10:13;95050.88;;;8.36;88.94
77288;BME280;66345;42.694;23.346;2024-03-02T08:12:39;95041.66;;;8.31;89.36
77288;BME280;66345;42.694;23.346;2024-03-02T08:15:05;95043.94;;;8.20;89.65
77288;BME280;66345;42.694;23.346;2024-03-02T08:17:31;95045.88;;;8.26;89.72
77288;BME280;66345;42.694;23.346;2024-03-02T08:19:57;95036.09;;;8.41;88.82
77288;BME280;66345;42.694;23.346;2024-03-02T08:22:23;95048.47;;;8.55;88.18
77288;BME280;66345;42.694;23.346;2024-03-02T08:24:51;95050.16;;;8.27;88.22
77288;BME280;66345;42.694;23.346;2024-03-02T08:27:16;95055.72;;;8.17;89.43
77288;BME280;66345;42.694;23.346;2024-03-02T08:29:42;95044.22;;;8.25;90.33
77288;BME280;66345;42.694;23.346;2024-03-02T08:32:08;95063.53;;;8.55;88.28
77288;BME280;66345;42.694;23.346;2024-03-02T08:34:33;95052.06;;;8.48;88.29
77288;BME280;66345;42.694;23.346;2024-03-02T08:37:02;95045.06;;;8.40;88.15
77288;BME280;66345;42.694;23.346;2024-03-02T08:39:28;95041.59;;;8.61;87.27
77288;BME280;66345;42.694;23.346;2024-03-02T08:41:54;95038.25;;;8.52;87.61
77288;BME280;66345;42.694;23.346;2024-03-02T08:44:20;95050.50;;;8.75;88.20
77288;BME280;66345;42.694;23.346;2024-03-02T08:46:45;95043.50;;;8.88;87.08
77288;BME280;66345;42.694;23.346;2024-03-02T08:49:11;95043.03;;;9.00;86.32
77288;BME280;66345;42.694;23.346;2024-03-02T08:51:37;95040.47;;;9.13;85.40
77288;BME280;66345;42.694;23.346;2024-03-02T08:54:02;95040.91;;;9.16;84.84
77288;BME280;66345;42.694;23.346;2024-03-02T08:56:30;95028.13;;;8.99;84.92
77288;BME280;66345;42.694;23.346;2024-03-02T08:58:55;95019.00;;;8.80;85.87
77288;BME280;66345;42.694;23.346;2024-03-02T09:01:21;95025.25;;;8.94;84.97
77288;BME280;66345;42.694;23.346;2024-03-02T09:03:46;95043.38;;;8.97;86.09
77288;BME280;66345;42.694;23.346;2024-03-02T09:06:13;95033.78;;;9.17;84.59
77288;BME280;66345;42.694;23.346;2024-03-02T09:08:39;95010.03;;;9.24;82.45
77288;BME280;66345;42.694;23.346;2024-03-02T09:11:08;95056.28;;;9.06;83.30
77288;BME280;66345;42.694;23.346;2024-03-02T09:13:33;95037.78;;;9.34;83.21
77288;BME280;66345;42.694;23.346;2024-03-02T09:15:59;95041.84;;;9.30;81.32
77288;BME280;66345;42.694;23.346;2024-03-02T09:18:25;95053.63;;;9.06;83.86
77288;BME280;66345;42.694;23.346;2024-03-02T09:20:50;95059.44;;;8.95;84.63
77288;BME280;66345;42.694;23.346;2024-03-02T09:23:16;95065.22;;;8.84;84.91
77288;BME280;66345;42.694;23.346;2024-03-02T09:25:41;95063.53;;;8.98;85.88
77288;BME280;66345;42.694;23.346;2024-03-02T09:28:07;95058.84;;;9.21;86.03
77288;BME280;66345;42.694;23.346;2024-03-02T09:30:33;95054.03;;;9.03;84.80
77288;BME280;66345;42.694;23.346;2024-03-02T09:32:58;95056.47;;;9.05;84.85
77288;BME280;66345;42.694;23.346;2024-03-02T09:35:24;95058.31;;;9.04;86.80
77288;BME280;66345;42.694;23.346;2024-03-02T09:37:50;95049.41;;;9.12;85.21
77288;BME280;66345;42.694;23.346;2024-03-02T09:40:15;95062.41;;;9.56;83.66
77288;BME280;66345;42.694;23.346;2024-03-02T09:42:41;95038.25;;;9.72;81.42
77288;BME280;66345;42.694;23.346;2024-03-02T09:45:09;95063.16;;;9.50;82.50
77288;BME280;66345;42.694;23.346;2024-03-02T09:47:35;95053.56;;;9.21;83.07
77288;BME280;66345;42.694;23.346;2024-03-02T09:50:01;95063.47;;;9.34;83.59
77288;BME280;66345;42.694;23.346;2024-03-02T09:52:27;95060.88;;;9.40;81.48
77288;BME280;66345;42.694;23.346;2024-03-02T09:54:53;95057.88;;;9.50;82.28
77288;BME280;66345;42.694;23.346;2024-03-02T09:57:18;95056.53;;;9.33;82.99
77288;BME280;66345;42.694;23.346;2024-03-02T09:59:44;95055.97;;;9.37;83.67
77288;BME280;66345;42.694;23.346;2024-03-02T10:02:10;95057.66;;;9.45;83.36
77288;BME280;66345;42.694;23.346;2024-03-02T10:04:36;95055.53;;;9.62;82.47
77288;BME280;66345;42.694;23.346;2024-03-02T10:07:16;95043.00;;;9.77;80.70
77288;BME280;66345;42.694;23.346;2024-03-02T10:09:42;95058.56;;;9.93;80.10
77288;BME280;66345;42.694;23.346;2024-03-02T10:12:09;95061.34;;;9.79;81.58
77288;BME280;66345;42.694;23.346;2024-03-02T10:14:36;95070.00;;;9.94;81.92
77288;BME280;66345;42.694;23.346;2024-03-02T10:17:07;95061.28;;;9.72;81.89
77288;BME280;66345;42.694;23.346;2024-03-02T10:19:33;95054.72;;;9.61;82.07
77288;BME280;66345;42.694;23.346;2024-03-02T10:22:01;95063.66;;;9.95;81.45
77288;BME280;66345;42.694;23.346;2024-03-02T10:24:43;95056.50;;;9.89;80.86
77288;BME280;66345;42.694;23.346;2024-03-02T10:27:17;95059.78;;;9.91;83.39
77288;BME280;66345;42.694;23.346;2024-03-02T10:29:46;95056.75;;;9.94;81.27
77288;BME280;66345;42.694;23.346;2024-03-02T10:32:12;95061.09;;;10.08;81.07
77288;BME280;66345;42.694;23.346;2024-03-02T10:34:42;95048.88;;;10.07;80.34
77288;BME280;66345;42.694;23.346;2024-03-02T10:37:08;95053.75;;;10.10;79.84
77288;BME280;66345;42.694;23.346;2024-03-02T10:39:35;95054.41;;;9.50;81.26
77288;BME280;66345;42.694;23.346;2024-03-02T10:42:02;95064.91;;;9.64;83.73
77288;BME280;66345;42.694;23.346;2024-03-02T10:44:31;95054.16;;;9.72;83.35
77288;BME280;66345;42.694;23.346;2024-03-02T10:47:00;95055.75;;;10.01;82.79
77288;BME280;66345;42.694;23.346;2024-03-02T10:49:29;95031.56;;;9.77;81.87
77288;BME280;66345;42.694;23.346;2024-03-02T10:51:54;95043.06;;;9.90;83.29
77288;BME280;66345;42.694;23.346;2024-03-02T10:54:20;95031.34;;;10.06;82.19
77288;BME280;66345;42.694;23.346;2024-03-02T10:56:53;95054.69;;;10.24;81.39
77288;BME280;66345;42.694;23.346;2024-03-02T10:59:31;95048.88;;;10.07;81.64
77288;BME280;66345;42.694;23.346;2024-03-02T11:02:00;95037.00;;;10.03;81.43
77288;BME280;66345;42.694;23.346;2024-03-02T11:04:27;95045.97;;;10.02;81.34
77288;BME280;66345;42.694;23.346;2024-03-02T11:07:03;95026.38;;;9.96;80.03
77288;BME280;66345;42.694;23.346;2024-03-02T11:09:29;95043.06;;;9.90;80.58
77288;BME280;66345;42.694;23.346;2024-03-02T11:12:03;95034.53;;;9.95;80.71
77288;BME280;66345;42.694;23.346;2024-03-02T11:14:32;95039.13;;;10.14;81.15
77288;BME280;66345;42.694;23.346;2024-03-02T11:17:01;95035.78;;;9.99;81.16
77288;BME280;66345;42.694;23.346;2024-03-02T11:19:29;95036.78;;;9.98;81.74
77288;BME280;66345;42.694;23.346;2024-03-02T11:21:56;95046.25;;;10.14;81.67
77288;BME280;66345;42.694;23.346;2024-03-02T11:26:50;95044.38;;;9.73;82.77
77288;BME280;66345;42.694;23.346;2024-03-02T11:32:15;95034.59;;;9.39;84.87
77288;BME280;66345;42.694;23.346;2024-03-02T11:34:42;95025.16;;;9.30;85.17
77288;BME280;66345;42.694;23.346;2024-03-02T11:37:12;95043.81;;;9.50;84.61
77288;BME280;66345;42.694;23.346;2024-03-02T11:39:39;95030.81;;;9.55;83.77
77288;BME280;66345;42.694;23.346;2024-03-02T11:42:06;95022.38;;;9.44;84.97
77288;BME280;66345;42.694;23.346;2024-03-02T11:44:34;95034.44;;;9.47;84.97
77288;BME280;66345;42.694;23.346;2024-03-02T11:47:01;95038.03;;;9.39;85.25
77288;BME280;66345;42.694;23.346;2024-03-02T11:49:53;95044.16;;;9.40;85.62
77288;BME280;66345;42.694;23.346;2024-03-02T11:52:20;95028.31;;;9.81;83.67
77288;BME280;66345;42.694;23.346;2024-03-02T11:54:47;95038.59;;;9.91;83.47
77288;BME280;66345;42.694;23.346;2024-03-02T11:57:22;95031.00;;;9.88;83.05
77288;BME280;66345;42.694;23.346;2024-03-02T11:59:49;95025.47;;;9.76;83.47
77288;BME280;66345;42.694;23.346;2024-03-02T12:02:19;95011.25;;;9.84;82.79
77288;BME280;66345;42.694;23.346;2024-03-02T12:04:46;95035.78;;;9.99;83.00
77288;BME280;66345;42.694;23.346;2024-03-02T12:07:22;95029.28;;;10.08;82.43
77288;BME280;66345;42.694;23.346;2024-03-02T12:09:48;95032.00;;;10.21;81.48
77288;BME280;66345;42.694;23.346;2024-03-02T12:12:14;95033.22;;;10.19;80.95
77288;BME280;66345;42.694;23.346;2024-03-02T12:14:50;95024.22;;;10.20;80.63
77288;BME280;66345;42.694;23.346;2024-03-02T12:17:17;95019.09;;;10.12;79.96
77288;BME280;66345;42.694;23.346;2024-03-02T12:19:42;95021.66;;;9.92;81.38
77288;BME280;66345;42.694;23.346;2024-03-02T12:22:08;95015.03;;;9.68;80.82
77288;BME280;66345;42.694;23.346;2024-03-02T12:24:33;95022.13;;;10.02;79.54
77288;BME280;66345;42.694;23.346;2024-03-02T12:26:59;95020.75;;;10.19;78.48
77288;BME280;66345;42.694;23.346;2024-03-02T12:29:25;95017.97;;;10.27;77.04
77288;BME280;66345;42.694;23.346;2024-03-02T12:31:52;95030.19;;;10.22;78.01
77288;BME280;66345;42.694;23.346;2024-03-02T12:34:18;95028.06;;;10.11;77.87
77288;BME280;66345;42.694;23.346;2024-03-02T12:36:45;95026.88;;;10.13;78.62
77288;BME280;66345;42.694;23.346;2024-03-02T12:39:13;95019.84;;;10.34;78.65
77288;BME280;66345;42.694;23.346;2024-03-02T12:41:39;95014.31;;;10.28;79.00
77288;BME280;66345;42.694;23.346;2024-03-02T12:44:05;95015.81;;;10.57;76.63
77288;BME280;66345;42.694;23.346;2024-03-02T12:46:32;95023.31;;;10.41;76.69
77288;BME280;66345;42.694;23.346;2024-03-02T12:49:10;95030.41;;;10.27;78.43
77288;BME280;66345;42.694;23.346;2024-03-02T12:51:37;95031.94;;;10.08;78.54
77288;BME280;66345;42.694;23.346;2024-03-02T12:54:03;95023.91;;;9.95;79.47
77288;BME280;66345;42.694;23.346;2024-03-02T12:56:31;95023.47;;;9.85;79.70
77288;BME280;66345;42.694;23.346;2024-03-02T12:58:58;95026.69;;;9.80;79.54
77288;BME280;66345;42.694;23.346;2024-03-02T13:01:24;95032.28;;;9.92;79.98
77288;BME280;66345;42.694;23.346;2024-03-02T13:03:50;95028.97;;;10.24;77.47
77288;BME280;66345;42.694;23.346;2024-03-02T13:06:20;95032.19;;;10.13;78.47
77288;BME280;66345;42.694;23.346;2024-03-02T13:08:46;95006.38;;;10.28;77.82